Flight Track Log - Related Links

Times and Time Zones

All times are in EDT time to prevent confusion due to time zone crossing. See the N210PM flight status page for this flight to view local times or setup timezone preferences in your user account.

Time Position Orientation Groundspeed Altitude Reporting Facility
EDT Latitude Longitude Course Direction KTS MPH feet Rate Location/Type
Fri 09:07:15 AM 40.8592 -96.7467 317° Northwest 158 182 1,800  Level Minneapolis Center
Fri 09:08:03 AM 40.8861 -96.7797 317° Northwest 174 200 4,100 2,692 Climbing Minneapolis Center
Fri 09:09:02 AM 40.9242 -96.8328 314° West 167 192 6,600 2,529 Climbing Minneapolis Center
Fri 09:10:04 AM 40.9528 -96.8847 306° West 172 198 9,200 2,274 Climbing Minneapolis Center
Fri 09:11:06 AM 40.9814 -96.9375 306° West 175 201 11,300 2,032 Climbing Minneapolis Center
Fri 09:12:08 AM 41.0119 -96.9933 306° West 183 211 13,400 1,854 Climbing Minneapolis Center
Fri 09:13:09 AM 41.0431 -97.0500 306° West 187 215 15,100 1,659 Climbing Minneapolis Center
Fri 09:14:11 AM 41.0750 -97.1097 305° West 194 223 16,800 1,645 Climbing Minneapolis Center
Fri 09:15:13 AM 41.1083 -97.1700 306° West 200 230 18,500 1,561 Climbing Minneapolis Center
Fri 09:16:14 AM 41.1428 -97.2311 307° West 204 235 20,000 732 Climbing Minneapolis Center
Fri 09:17:16 AM 41.1892 -97.3203 305° West 241 277 20,000  Level Minneapolis Center
Fri 09:18:18 AM 41.2336 -97.3992 307° West 275 316 20,000 726 Level Minneapolis Center
Fri 09:19:20 AM 41.2806 -97.4847 306° West 285 328 21,500 976 Climbing Minneapolis Center
Fri 09:20:21 AM 41.3222 -97.5600 306° West 263 303 22,000 244 Climbing Minneapolis Center
Fri 09:21:23 AM 41.3711 -97.6539 305° West 278 320 22,000  Level Minneapolis Center
Fri 09:22:25 AM 41.4200 -97.7447 306° West 293 337 22,000  Level Minneapolis Center
Fri 09:23:26 AM 41.4706 -97.8372 306° West 303 349 22,000  Level Minneapolis Center
Fri 09:24:28 AM 41.5197 -97.9292 306° West 304 350 22,000  Level Minneapolis Center
Fri 09:25:30 AM 41.5789 -98.0411 305° West 306 352 22,000  Level Minneapolis Center
Fri 09:26:31 AM 41.6278 -98.1333 305° West 306 352 22,000  Level Minneapolis Center
Fri 09:27:33 AM 41.6733 -98.2175 306° West 307 353 22,000  Level Minneapolis Center
Fri 09:28:35 AM 41.7222 -98.3108 305° West 308 354 22,000  Level Minneapolis Center
Fri 09:29:36 AM 41.7811 -98.4225 305° West 307 353 22,000  Level Minneapolis Center
Fri 09:30:38 AM 41.8303 -98.5158 305° West 307 353 22,000  Level Minneapolis Center
Fri 09:31:39 AM 41.8792 -98.6100 305° West 308 354 22,000  Level Minneapolis Center
Fri 09:32:41 AM 41.9272 -98.7039 305° West 307 353 22,000  Level Minneapolis Center
Fri 09:33:43 AM 41.9767 -98.7975 305° West 307 353 22,000  Level Minneapolis Center
Fri 09:34:44 AM 42.0247 -98.8933 304° West 309 356 22,000  Level Minneapolis Center
Fri 09:35:46 AM 42.0736 -98.9886 305° West 309 356 22,000  Level Minneapolis Center
Fri 09:36:48 AM 42.1322 -99.1017 305° West 309 356 22,000  Level Minneapolis Center
Fri 09:37:11 AM 42.1514 -99.1397 304° West 309 356 22,000  Level Denver Center
Fri 09:38:12 AM 42.1994 -99.2339 305° West 307 353 22,000  Level Denver Center
Fri 09:39:13 AM 42.2483 -99.3286 305° West 307 353 22,000  Level Denver Center
Fri 09:40:14 AM 42.2961 -99.4233 304° West 308 354 22,000 -836 Level Denver Center
Fri 09:41:15 AM 42.3447 -99.5203 304° West 310 357 20,300 -1,672 Descending Denver Center
Fri 09:42:16 AM 42.3928 -99.6147 305° West 308 354 18,600 -1,623 Descending Denver Center
Fri 09:43:17 AM 42.4394 -99.7075 304° West 301 346 17,000 -1,610 Descending Denver Center
Fri 09:44:19 AM 42.4844 -99.7964 304° West 290 334 15,300 -1,659 Descending Denver Center
Fri 09:45:20 AM 42.5303 -99.8878 304° West 292 336 13,600 -1,623 Descending Denver Center
Fri 09:46:21 AM 42.5736 -99.9769 303° West 285 328 12,000 -1,525 Descending Denver Center
Fri 09:47:22 AM 42.6172 -100.0631 305° West 265 305 10,500 -1,143 Descending Denver Center
Fri 09:48:06 AM 42.6467 -100.1225 304° West 259 298 10,000 -492 Descending Minneapolis Center
Fri 09:48:23 AM 42.6603 -100.1500 304° West 250 288 10,000 -911 Level Denver Center
Fri 09:49:25 AM 42.6950 -100.2192 304° West 236 272 8,800 -1,161 Descending Denver Center

Login

Don't have an account? Register now (free) for customized features, flight alerts, and more!